KLM83R EHAM-EDDM
Flight info
| Callsign | KLM83R |
|---|---|
| Flight time | 1h 4m |
| Altitude | 33000 |
| Route | EDUPO Z739 MISGO DCT DOJOH DCT DODEN DCT TABUM DCT BOMBI T104 HAREM/N0442F270 T104 ROKIL ROKIL1B |
| Aircraft | B739/M-SDE2E3FGHIRWXY/LB1 |
Departure
| Time | 2026-05-06 18:49 |
|---|---|
| Airport | Amsterdam Airport Schiphol (EHAM) |
Arrival
| Time | 2026-05-06 19:54 |
|---|---|
| Airport | Munich Airport (EDDM) |
| Time | Latitude | Longitude | Altitude | Speed | Heading |
|---|---|---|---|---|---|
| 2026-05-06 18:17 | 52.30506 | 4.76550 | -2 ft | 0 kts | 59° |
| 2026-05-06 18:37 | 52.30496 | 4.76522 | -29 ft | 4 kts | 63° |
| 2026-05-06 18:37 | 52.30489 | 4.76496 | -2 ft | 4 kts | 78° |
| 2026-05-06 18:37 | 52.30491 | 4.76460 | -2 ft | 0 kts | 136° |
| 2026-05-06 18:42 | 52.30478 | 4.76473 | -2 ft | 4 kts | 153° |
| 2026-05-06 18:42 | 52.30436 | 4.76511 | -2 ft | 9 kts | 148° |
| 2026-05-06 18:42 | 52.30364 | 4.76575 | -2 ft | 14 kts | 164° |
| 2026-05-06 18:43 | 52.30278 | 4.76480 | -2 ft | 18 kts | 238° |
| 2026-05-06 18:43 | 52.30199 | 4.76271 | -2 ft | 24 kts | 238° |
| 2026-05-06 18:43 | 52.30109 | 4.76037 | -2 ft | 24 kts | 237° |
| 2026-05-06 18:43 | 52.30023 | 4.75816 | -2 ft | 23 kts | 238° |
| 2026-05-06 18:44 | 52.29941 | 4.75600 | -2 ft | 22 kts | 238° |
| 2026-05-06 18:44 | 52.29860 | 4.75392 | -2 ft | 21 kts | 237° |
| 2026-05-06 18:44 | 52.29854 | 4.75174 | -2 ft | 21 kts | 307° |
| 2026-05-06 18:44 | 52.29947 | 4.74999 | -2 ft | 20 kts | 311° |
| 2026-05-06 18:45 | 52.30038 | 4.74829 | -2 ft | 19 kts | 314° |
| 2026-05-06 18:45 | 52.30127 | 4.74667 | 7 ft | 19 kts | 311° |
| 2026-05-06 18:45 | 52.30212 | 4.74510 | 9 ft | 18 kts | 311° |
| 2026-05-06 18:45 | 52.30267 | 4.74407 | 9 ft | 18 kts | 311° |
| 2026-05-06 18:46 | 52.30369 | 4.74167 | -2 ft | 12 kts | 278° |
| 2026-05-06 18:46 | 52.30416 | 4.74066 | -2 ft | 12 kts | 283° |
| 2026-05-06 18:46 | 52.30406 | 4.73936 | -2 ft | 12 kts | 271° |
| 2026-05-06 18:46 | 52.30412 | 4.73795 | -4 ft | 11 kts | 290° |
| 2026-05-06 18:47 | 52.30474 | 4.73762 | -4 ft | 9 kts | 4° |
| 2026-05-06 18:47 | 52.30500 | 4.73764 | -4 ft | 0 kts | 3° |
| 2026-05-06 18:48 | 52.30500 | 4.73765 | -4 ft | 1 kts | 3° |
| 2026-05-06 18:48 | 52.30702 | 4.73783 | -2 ft | 64 kts | 3° |
| 2026-05-06 18:49 | 52.31358 | 4.73845 | -3 ft | 123 kts | 3° |
| 2026-05-06 18:49 | 52.32343 | 4.73947 | 181 ft | 151 kts | 4° |
| 2026-05-06 18:49 | 52.33386 | 4.74044 | 817 ft | 152 kts | 6° |
| 2026-05-06 18:49 | 52.34435 | 4.74473 | 1388 ft | 155 kts | 25° |
| 2026-05-06 18:50 | 52.35427 | 4.75163 | 1978 ft | 162 kts | 24° |
| 2026-05-06 18:50 | 52.36543 | 4.75920 | 2215 ft | 184 kts | 24° |
| 2026-05-06 18:50 | 52.37762 | 4.76851 | 2475 ft | 202 kts | 35° |
| 2026-05-06 18:50 | 52.38821 | 4.78522 | 2663 ft | 226 kts | 54° |
| 2026-05-06 18:51 | 52.39571 | 4.80871 | 3018 ft | 244 kts | 72° |
| 2026-05-06 18:51 | 52.39597 | 4.83689 | 3605 ft | 260 kts | 104° |
| 2026-05-06 18:51 | 52.38793 | 4.86371 | 4391 ft | 262 kts | 119° |
| 2026-05-06 18:51 | 52.37827 | 4.88921 | 5301 ft | 261 kts | 119° |
| 2026-05-06 18:52 | 52.37182 | 4.90598 | 5742 ft | 265 kts | 119° |
| 2026-05-06 18:52 | 52.35895 | 4.94102 | 6506 ft | 277 kts | 119° |
| 2026-05-06 18:52 | 52.34905 | 4.96805 | 7228 ft | 278 kts | 119° |
| 2026-05-06 18:52 | 52.34211 | 4.98625 | 7735 ft | 279 kts | 121° |
| 2026-05-06 18:53 | 52.33096 | 5.01248 | 8414 ft | 284 kts | 128° |
| 2026-05-06 18:53 | 52.31752 | 5.03659 | 9049 ft | 290 kts | 132° |
| 2026-05-06 18:53 | 52.30359 | 5.06065 | 9753 ft | 292 kts | 133° |
| 2026-05-06 18:53 | 52.28961 | 5.08494 | 10332 ft | 299 kts | 133° |
| 2026-05-06 18:54 | 52.27492 | 5.11055 | 10484 ft | 320 kts | 133° |
| 2026-05-06 18:54 | 52.25920 | 5.13799 | 10658 ft | 340 kts | 132° |
| 2026-05-06 18:54 | 52.24259 | 5.16700 | 10821 ft | 359 kts | 133° |
| 2026-05-06 18:54 | 52.22514 | 5.19753 | 10938 ft | 377 kts | 133° |
| 2026-05-06 18:55 | 52.20692 | 5.22943 | 11140 ft | 392 kts | 133° |
| 2026-05-06 18:55 | 52.18819 | 5.26225 | 11599 ft | 396 kts | 133° |
| 2026-05-06 18:55 | 52.16971 | 5.29471 | 12235 ft | 397 kts | 133° |
| 2026-05-06 18:55 | 52.15088 | 5.32791 | 12844 ft | 400 kts | 133° |
| 2026-05-06 18:56 | 52.13174 | 5.36170 | 13481 ft | 402 kts | 133° |
| 2026-05-06 18:56 | 52.11268 | 5.39544 | 13984 ft | 407 kts | 133° |
| 2026-05-06 18:56 | 52.09347 | 5.42948 | 14511 ft | 411 kts | 133° |
| 2026-05-06 18:56 | 52.07435 | 5.46337 | 15072 ft | 413 kts | 133° |
| 2026-05-06 18:57 | 52.05489 | 5.49788 | 15630 ft | 416 kts | 133° |
| 2026-05-06 18:57 | 52.03526 | 5.53267 | 16164 ft | 419 kts | 133° |
| 2026-05-06 18:57 | 52.01549 | 5.56771 | 16697 ft | 423 kts | 133° |
| 2026-05-06 18:57 | 51.99552 | 5.60311 | 17221 ft | 426 kts | 133° |
| 2026-05-06 18:58 | 51.97549 | 5.63862 | 17738 ft | 429 kts | 133° |
| 2026-05-06 18:58 | 51.95523 | 5.67450 | 18252 ft | 432 kts | 133° |
| 2026-05-06 18:58 | 51.93487 | 5.71055 | 18688 ft | 435 kts | 133° |
| 2026-05-06 18:58 | 51.91438 | 5.74687 | 19161 ft | 437 kts | 133° |
| 2026-05-06 18:59 | 51.89386 | 5.78331 | 19632 ft | 439 kts | 133° |
| 2026-05-06 18:59 | 51.87324 | 5.81995 | 20103 ft | 441 kts | 133° |
| 2026-05-06 18:59 | 51.85265 | 5.85700 | 20543 ft | 444 kts | 131° |
| 2026-05-06 18:59 | 51.83383 | 5.89684 | 20980 ft | 447 kts | 126° |
| 2026-05-06 19:00 | 51.81619 | 5.93851 | 21394 ft | 451 kts | 124° |
| 2026-05-06 19:00 | 51.79880 | 5.98090 | 21802 ft | 454 kts | 124° |
| 2026-05-06 19:00 | 51.78125 | 6.02339 | 22197 ft | 457 kts | 125° |
| 2026-05-06 19:00 | 51.76338 | 6.06589 | 22596 ft | 459 kts | 126° |
| 2026-05-06 19:01 | 51.74516 | 6.10844 | 22999 ft | 462 kts | 126° |
| 2026-05-06 19:01 | 51.72666 | 6.15108 | 23390 ft | 465 kts | 126° |
| 2026-05-06 19:01 | 51.70801 | 6.19374 | 23730 ft | 467 kts | 127° |
| 2026-05-06 19:01 | 51.68922 | 6.23651 | 24100 ft | 468 kts | 127° |
| 2026-05-06 19:02 | 51.67037 | 6.27934 | 24469 ft | 469 kts | 127° |
| 2026-05-06 19:02 | 51.65143 | 6.32233 | 24822 ft | 471 kts | 127° |
| 2026-05-06 19:02 | 51.63243 | 6.36539 | 25143 ft | 473 kts | 126° |
| 2026-05-06 19:02 | 51.61342 | 6.40844 | 25572 ft | 472 kts | 126° |
| 2026-05-06 19:03 | 51.59438 | 6.45148 | 25923 ft | 473 kts | 127° |
| 2026-05-06 19:03 | 51.57525 | 6.49468 | 26213 ft | 475 kts | 127° |
| 2026-05-06 19:03 | 51.55601 | 6.53804 | 26514 ft | 477 kts | 127° |
| 2026-05-06 19:03 | 51.53676 | 6.58137 | 26910 ft | 476 kts | 127° |
| 2026-05-06 19:04 | 51.51779 | 6.62399 | 27427 ft | 473 kts | 127° |
| 2026-05-06 19:04 | 51.49872 | 6.66677 | 27954 ft | 470 kts | 127° |
| 2026-05-06 19:04 | 51.47971 | 6.70934 | 28449 ft | 468 kts | 127° |
| 2026-05-06 19:04 | 51.46072 | 6.75180 | 28864 ft | 468 kts | 127° |
| 2026-05-06 19:05 | 51.44171 | 6.79424 | 29192 ft | 470 kts | 127° |
| 2026-05-06 19:05 | 51.42265 | 6.83670 | 29623 ft | 469 kts | 127° |
| 2026-05-06 19:05 | 51.40332 | 6.87858 | 30109 ft | 466 kts | 130° |
| 2026-05-06 19:05 | 51.38138 | 6.91627 | 30506 ft | 462 kts | 137° |
| 2026-05-06 19:06 | 51.35821 | 6.95188 | 30870 ft | 461 kts | 138° |
| 2026-05-06 19:06 | 51.33490 | 6.98698 | 31280 ft | 459 kts | 138° |
| 2026-05-06 19:06 | 51.31170 | 7.02192 | 31640 ft | 458 kts | 138° |
| 2026-05-06 19:06 | 51.28854 | 7.05705 | 31932 ft | 459 kts | 138° |
| 2026-05-06 19:07 | 51.26550 | 7.09224 | 32238 ft | 459 kts | 138° |
| 2026-05-06 19:07 | 51.24248 | 7.12759 | 32582 ft | 458 kts | 137° |
| 2026-05-06 19:07 | 51.21962 | 7.16278 | 32886 ft | 457 kts | 138° |
| 2026-05-06 19:08 | 51.17380 | 7.23328 | 32884 ft | 457 kts | 138° |
| 2026-05-06 19:08 | 51.12807 | 7.30342 | 32877 ft | 456 kts | 138° |
| 2026-05-06 19:09 | 51.08240 | 7.37324 | 32884 ft | 455 kts | 138° |
| 2026-05-06 19:09 | 51.03659 | 7.44307 | 32876 ft | 454 kts | 138° |
| 2026-05-06 19:10 | 50.99115 | 7.51212 | 32870 ft | 453 kts | 138° |
| 2026-05-06 19:10 | 50.94558 | 7.58118 | 32854 ft | 453 kts | 139° |
| 2026-05-06 19:11 | 50.90000 | 7.65007 | 32855 ft | 452 kts | 139° |
| 2026-05-06 19:11 | 50.85447 | 7.71871 | 32854 ft | 452 kts | 139° |
| 2026-05-06 19:12 | 50.80881 | 7.78709 | 32840 ft | 452 kts | 139° |
| 2026-05-06 19:12 | 50.76336 | 7.85456 | 32839 ft | 451 kts | 139° |
| 2026-05-06 19:13 | 50.71754 | 7.92244 | 32831 ft | 452 kts | 139° |
| 2026-05-06 19:13 | 50.67141 | 7.99066 | 32825 ft | 452 kts | 140° |
| 2026-05-06 19:14 | 50.62585 | 8.05788 | 32835 ft | 452 kts | 140° |
| 2026-05-06 19:14 | 50.57713 | 8.12071 | 32845 ft | 448 kts | 149° |
| 2026-05-06 19:15 | 50.52470 | 8.17227 | 32840 ft | 447 kts | 150° |
| 2026-05-06 19:15 | 50.47200 | 8.22406 | 32839 ft | 447 kts | 150° |
| 2026-05-06 19:16 | 50.41958 | 8.27644 | 32835 ft | 447 kts | 150° |
| 2026-05-06 19:16 | 50.36722 | 8.32894 | 32837 ft | 446 kts | 150° |
| 2026-05-06 19:17 | 50.31504 | 8.38105 | 32830 ft | 444 kts | 150° |
| 2026-05-06 19:17 | 50.26740 | 8.44248 | 32831 ft | 448 kts | 135° |
| 2026-05-06 19:18 | 50.22562 | 8.51478 | 32828 ft | 447 kts | 135° |
| 2026-05-06 19:18 | 50.18378 | 8.58655 | 32828 ft | 447 kts | 136° |
| 2026-05-06 19:19 | 50.14167 | 8.65774 | 32829 ft | 446 kts | 136° |
| 2026-05-06 19:19 | 50.09948 | 8.72869 | 32829 ft | 446 kts | 136° |
| 2026-05-06 19:20 | 50.05725 | 8.79946 | 32834 ft | 445 kts | 137° |
| 2026-05-06 19:20 | 50.01246 | 8.86559 | 32831 ft | 443 kts | 141° |
| 2026-05-06 19:21 | 49.96633 | 8.92908 | 32825 ft | 443 kts | 141° |
| 2026-05-06 19:21 | 49.92033 | 8.99282 | 32825 ft | 443 kts | 141° |
| 2026-05-06 19:22 | 49.87456 | 9.05686 | 32828 ft | 443 kts | 141° |
| 2026-05-06 19:22 | 49.82883 | 9.12092 | 32818 ft | 442 kts | 141° |
| 2026-05-06 19:23 | 49.78323 | 9.18463 | 32824 ft | 440 kts | 141° |
| 2026-05-06 19:23 | 49.73780 | 9.24790 | 32811 ft | 439 kts | 141° |
| 2026-05-06 19:24 | 49.69244 | 9.31091 | 32812 ft | 438 kts | 141° |
| 2026-05-06 19:24 | 49.64714 | 9.37369 | 32820 ft | 437 kts | 141° |
| 2026-05-06 19:25 | 49.60329 | 9.43866 | 32816 ft | 439 kts | 134° |
| 2026-05-06 19:25 | 49.56342 | 9.50993 | 32811 ft | 439 kts | 134° |
| 2026-05-06 19:26 | 49.52348 | 9.58091 | 32513 ft | 436 kts | 134° |
| 2026-05-06 19:26 | 49.50323 | 9.61656 | 31387 ft | 445 kts | 134° |
| 2026-05-06 19:26 | 49.48306 | 9.65192 | 30426 ft | 446 kts | 134° |
| 2026-05-06 19:26 | 49.46263 | 9.68771 | 29525 ft | 445 kts | 133° |
| 2026-05-06 19:27 | 49.44220 | 9.72347 | 28547 ft | 444 kts | 133° |
| 2026-05-06 19:27 | 49.42166 | 9.75939 | 27799 ft | 439 kts | 133° |
| 2026-05-06 19:27 | 49.40189 | 9.79392 | 27129 ft | 433 kts | 133° |
| 2026-05-06 19:27 | 49.38205 | 9.82851 | 26476 ft | 432 kts | 133° |
| 2026-05-06 19:28 | 49.36192 | 9.86328 | 25847 ft | 441 kts | 134° |
| 2026-05-06 19:28 | 49.34135 | 9.89855 | 25221 ft | 445 kts | 134° |
| 2026-05-06 19:28 | 49.32081 | 9.93371 | 24963 ft | 442 kts | 134° |
| 2026-05-06 19:28 | 49.30028 | 9.96878 | 24858 ft | 442 kts | 134° |
| 2026-05-06 19:29 | 49.27984 | 10.00371 | 24812 ft | 439 kts | 134° |
| 2026-05-06 19:29 | 49.25950 | 10.03841 | 24815 ft | 438 kts | 134° |
| 2026-05-06 19:29 | 49.23909 | 10.07318 | 24806 ft | 439 kts | 134° |
| 2026-05-06 19:29 | 49.21868 | 10.10793 | 24806 ft | 440 kts | 134° |
| 2026-05-06 19:30 | 49.19819 | 10.14279 | 24836 ft | 440 kts | 134° |
| 2026-05-06 19:30 | 49.17786 | 10.17767 | 24841 ft | 440 kts | 134° |
| 2026-05-06 19:30 | 49.15759 | 10.21278 | 24855 ft | 440 kts | 134° |
| 2026-05-06 19:30 | 49.13728 | 10.24784 | 24836 ft | 440 kts | 135° |
| 2026-05-06 19:31 | 49.11653 | 10.28202 | 24841 ft | 438 kts | 136° |
| 2026-05-06 19:31 | 49.09550 | 10.31566 | 24870 ft | 437 kts | 136° |
| 2026-05-06 19:31 | 49.05349 | 10.38249 | 24875 ft | 436 kts | 136° |
| 2026-05-06 19:32 | 49.03255 | 10.41606 | 24873 ft | 436 kts | 136° |
| 2026-05-06 19:32 | 49.01169 | 10.44955 | 24885 ft | 436 kts | 136° |
| 2026-05-06 19:32 | 48.99074 | 10.48289 | 24884 ft | 436 kts | 137° |
| 2026-05-06 19:32 | 48.96961 | 10.51599 | 24889 ft | 436 kts | 137° |
| 2026-05-06 19:33 | 48.94844 | 10.54907 | 24886 ft | 436 kts | 137° |
| 2026-05-06 19:33 | 48.92736 | 10.58237 | 24848 ft | 437 kts | 136° |
| 2026-05-06 19:33 | 48.90637 | 10.61594 | 24634 ft | 441 kts | 136° |
| 2026-05-06 19:33 | 48.88529 | 10.64975 | 24122 ft | 438 kts | 136° |
| 2026-05-06 19:34 | 48.86448 | 10.68306 | 23524 ft | 429 kts | 136° |
| 2026-05-06 19:34 | 48.84417 | 10.71544 | 22846 ft | 420 kts | 136° |
| 2026-05-06 19:34 | 48.82437 | 10.74687 | 22180 ft | 415 kts | 136° |
| 2026-05-06 19:34 | 48.80426 | 10.77871 | 21507 ft | 410 kts | 136° |
| 2026-05-06 19:35 | 48.78452 | 10.80967 | 20745 ft | 408 kts | 137° |
| 2026-05-06 19:35 | 48.76476 | 10.84047 | 19962 ft | 407 kts | 137° |
| 2026-05-06 19:35 | 48.74513 | 10.87102 | 19282 ft | 403 kts | 137° |
| 2026-05-06 19:35 | 48.72566 | 10.90135 | 18657 ft | 399 kts | 137° |
| 2026-05-06 19:36 | 48.70707 | 10.93234 | 17999 ft | 398 kts | 130° |
| 2026-05-06 19:36 | 48.69286 | 10.96772 | 17253 ft | 399 kts | 118° |
| 2026-05-06 19:36 | 48.68284 | 11.00687 | 16513 ft | 401 kts | 110° |
| 2026-05-06 19:36 | 48.67478 | 11.04775 | 15753 ft | 400 kts | 110° |
| 2026-05-06 19:37 | 48.66687 | 11.08745 | 15013 ft | 399 kts | 110° |
| 2026-05-06 19:37 | 48.65877 | 11.12759 | 14295 ft | 399 kts | 110° |
| 2026-05-06 19:37 | 48.65059 | 11.16767 | 13617 ft | 398 kts | 110° |
| 2026-05-06 19:37 | 48.64504 | 11.19463 | 13141 ft | 397 kts | 110° |
| 2026-05-06 19:38 | 48.63418 | 11.24710 | 12292 ft | 392 kts | 111° |
| 2026-05-06 19:38 | 48.62604 | 11.28624 | 11711 ft | 389 kts | 111° |
| 2026-05-06 19:38 | 48.61812 | 11.32435 | 11615 ft | 372 kts | 111° |
| 2026-05-06 19:38 | 48.61051 | 11.36088 | 11488 ft | 357 kts | 111° |
| 2026-05-06 19:39 | 48.60553 | 11.38476 | 11399 ft | 348 kts | 111° |
| 2026-05-06 19:39 | 48.59840 | 11.41877 | 11140 ft | 341 kts | 111° |
| 2026-05-06 19:39 | 48.59115 | 11.45323 | 10932 ft | 339 kts | 111° |
| 2026-05-06 19:39 | 48.58407 | 11.48677 | 10878 ft | 339 kts | 111° |
| 2026-05-06 19:40 | 48.57681 | 11.52110 | 10862 ft | 339 kts | 111° |
| 2026-05-06 19:40 | 48.56967 | 11.55488 | 10852 ft | 335 kts | 111° |
| 2026-05-06 19:40 | 48.56282 | 11.58734 | 10787 ft | 324 kts | 111° |
| 2026-05-06 19:40 | 48.55609 | 11.61923 | 10677 ft | 313 kts | 112° |
| 2026-05-06 19:41 | 48.54951 | 11.65029 | 10431 ft | 308 kts | 112° |
| 2026-05-06 19:41 | 48.54296 | 11.68105 | 10063 ft | 308 kts | 112° |
| 2026-05-06 19:41 | 48.53643 | 11.71166 | 9714 ft | 308 kts | 112° |
| 2026-05-06 19:41 | 48.52987 | 11.74239 | 9342 ft | 307 kts | 112° |
| 2026-05-06 19:42 | 48.52333 | 11.77301 | 9004 ft | 305 kts | 112° |
| 2026-05-06 19:42 | 48.51683 | 11.80341 | 8637 ft | 304 kts | 111° |
| 2026-05-06 19:42 | 48.51034 | 11.83371 | 8297 ft | 303 kts | 111° |
| 2026-05-06 19:42 | 48.50385 | 11.86399 | 7906 ft | 304 kts | 111° |
| 2026-05-06 19:43 | 48.49735 | 11.89429 | 7569 ft | 303 kts | 111° |
| 2026-05-06 19:43 | 48.49086 | 11.92452 | 7249 ft | 302 kts | 111° |
| 2026-05-06 19:43 | 48.48442 | 11.95453 | 6961 ft | 300 kts | 110° |
| 2026-05-06 19:43 | 48.47800 | 11.98442 | 6574 ft | 300 kts | 109° |
| 2026-05-06 19:44 | 48.47480 | 12.01559 | 6201 ft | 303 kts | 89° |
| 2026-05-06 19:44 | 48.47607 | 12.04712 | 5940 ft | 300 kts | 85° |
| 2026-05-06 19:44 | 48.47785 | 12.07760 | 5787 ft | 284 kts | 84° |
| 2026-05-06 19:44 | 48.47956 | 12.10650 | 5667 ft | 270 kts | 84° |
| 2026-05-06 19:45 | 48.48115 | 12.13449 | 5410 ft | 268 kts | 84° |
| 2026-05-06 19:45 | 48.48269 | 12.16225 | 5194 ft | 264 kts | 84° |
| 2026-05-06 19:45 | 48.48280 | 12.18993 | 4839 ft | 267 kts | 102° |
| 2026-05-06 19:45 | 48.47514 | 12.21512 | 4429 ft | 265 kts | 135° |
| 2026-05-06 19:46 | 48.46091 | 12.23094 | 4158 ft | 249 kts | 166° |
| 2026-05-06 19:46 | 48.44454 | 12.23739 | 4050 ft | 244 kts | 176° |
| 2026-05-06 19:46 | 48.42806 | 12.23737 | 3987 ft | 232 kts | 205° |
| 2026-05-06 19:46 | 48.41507 | 12.22550 | 3992 ft | 212 kts | 231° |
| 2026-05-06 19:47 | 48.40498 | 12.20947 | 3972 ft | 209 kts | 233° |
| 2026-05-06 19:47 | 48.39605 | 12.19243 | 3953 ft | 202 kts | 250° |
| 2026-05-06 19:47 | 48.39427 | 12.17332 | 3994 ft | 180 kts | 274° |
| 2026-05-06 19:47 | 48.39332 | 12.15536 | 3983 ft | 163 kts | 261° |
| 2026-05-06 19:48 | 48.39164 | 12.13946 | 3961 ft | 146 kts | 266° |
| 2026-05-06 19:48 | 48.39056 | 12.12467 | 3967 ft | 140 kts | 266° |
| 2026-05-06 19:48 | 48.38946 | 12.10985 | 3993 ft | 140 kts | 265° |
| 2026-05-06 19:48 | 48.38836 | 12.09556 | 3997 ft | 140 kts | 266° |
| 2026-05-06 19:49 | 48.38723 | 12.08114 | 3981 ft | 138 kts | 266° |
| 2026-05-06 19:49 | 48.38611 | 12.06690 | 3980 ft | 137 kts | 265° |
| 2026-05-06 19:49 | 48.38499 | 12.05271 | 3978 ft | 136 kts | 265° |
| 2026-05-06 19:49 | 48.38387 | 12.03866 | 3980 ft | 137 kts | 265° |
| 2026-05-06 19:50 | 48.38272 | 12.02404 | 3977 ft | 142 kts | 265° |
| 2026-05-06 19:50 | 48.38157 | 12.00937 | 3939 ft | 141 kts | 265° |
| 2026-05-06 19:50 | 48.38041 | 11.99476 | 3780 ft | 140 kts | 265° |
| 2026-05-06 19:50 | 48.37928 | 11.98042 | 3605 ft | 137 kts | 265° |
| 2026-05-06 19:51 | 48.37818 | 11.96636 | 3442 ft | 135 kts | 265° |
| 2026-05-06 19:51 | 48.37710 | 11.95272 | 3269 ft | 129 kts | 265° |
| 2026-05-06 19:51 | 48.37611 | 11.93960 | 3128 ft | 124 kts | 265° |
| 2026-05-06 19:51 | 48.37517 | 11.92648 | 2955 ft | 128 kts | 264° |
| 2026-05-06 19:52 | 48.37406 | 11.91314 | 2759 ft | 131 kts | 264° |
| 2026-05-06 19:52 | 48.37311 | 11.89935 | 2624 ft | 132 kts | 263° |
| 2026-05-06 19:52 | 48.37196 | 11.88537 | 2416 ft | 139 kts | 263° |
| 2026-05-06 19:52 | 48.37078 | 11.87067 | 2233 ft | 143 kts | 263° |
| 2026-05-06 19:53 | 48.36962 | 11.85579 | 2026 ft | 141 kts | 261° |
| 2026-05-06 19:53 | 48.36838 | 11.84131 | 1780 ft | 139 kts | 263° |
| 2026-05-06 19:53 | 48.36734 | 11.82723 | 1619 ft | 133 kts | 262° |
| 2026-05-06 19:53 | 48.36629 | 11.81367 | 1489 ft | 125 kts | 262° |
| 2026-05-06 19:54 | 48.36543 | 11.80229 | 1484 ft | 88 kts | 263° |
| 2026-05-06 19:54 | 48.36489 | 11.79539 | 1484 ft | 45 kts | 263° |
| 2026-05-06 19:54 | 48.36456 | 11.79131 | 1484 ft | 36 kts | 262° |
| 2026-05-06 19:54 | 48.36363 | 11.78832 | 1477 ft | 29 kts | 233° |
| 2026-05-06 19:55 | 48.36254 | 11.78612 | 1484 ft | 22 kts | 233° |
| 2026-05-06 19:55 | 48.36165 | 11.78433 | 1474 ft | 21 kts | 234° |
| 2026-05-06 19:55 | 48.36118 | 11.78231 | 1480 ft | 20 kts | 262° |
| 2026-05-06 19:55 | 48.36102 | 11.78023 | 1476 ft | 20 kts | 263° |
| 2026-05-06 19:56 | 48.36085 | 11.77822 | 1484 ft | 19 kts | 263° |
| 2026-05-06 19:56 | 48.36073 | 11.77704 | 1477 ft | 3 kts | 248° |
| 2026-05-06 19:56 | 48.36063 | 11.77683 | 1474 ft | 2 kts | 227° |
| 2026-05-06 19:56 | 48.36047 | 11.77669 | 1478 ft | 3 kts | 198° |
| 2026-05-06 19:57 | 48.36017 | 11.77669 | 1484 ft | 5 kts | 179° |
| 2026-05-06 19:57 | 48.35964 | 11.77675 | 1480 ft | 10 kts | 173° |
| 2026-05-06 19:57 | 48.35877 | 11.77691 | 1474 ft | 15 kts | 173° |
| 2026-05-06 19:57 | 48.35770 | 11.77710 | 1474 ft | 15 kts | 174° |
| 2026-05-06 19:58 | 48.35666 | 11.77727 | 1479 ft | 15 kts | 173° |
| 2026-05-06 19:58 | 48.35566 | 11.77746 | 1484 ft | 14 kts | 173° |
| 2026-05-06 19:58 | 48.35471 | 11.77763 | 1480 ft | 13 kts | 174° |
| 2026-05-06 19:58 | 48.35381 | 11.77778 | 1476 ft | 13 kts | 172° |
| 2026-05-06 19:59 | 48.35334 | 11.77862 | 1484 ft | 12 kts | 88° |
| 2026-05-06 19:59 | 48.35343 | 11.77973 | 1484 ft | 9 kts | 83° |
| 2026-05-06 19:59 | 48.35348 | 11.78062 | 1479 ft | 7 kts | 84° |
| 2026-05-06 19:59 | 48.35343 | 11.78137 | 1474 ft | 7 kts | 118° |
| 2026-05-06 20:00 | 48.35301 | 11.78170 | 1484 ft | 7 kts | 168° |
| 2026-05-06 20:00 | 48.35254 | 11.78177 | 1475 ft | 7 kts | 175° |
| 2026-05-06 20:00 | 48.35207 | 11.78184 | 1484 ft | 7 kts | 173° |
| 2026-05-06 20:00 | 48.35162 | 11.78193 | 1484 ft | 6 kts | 172° |
| 2026-05-06 20:01 | 48.35125 | 11.78201 | 1484 ft | 4 kts | 171° |
| 2026-05-06 20:01 | 48.35095 | 11.78208 | 1472 ft | 4 kts | 171° |
| 2026-05-06 20:01 | 48.35066 | 11.78215 | 1482 ft | 4 kts | 171° |
| 2026-05-06 20:01 | 48.35048 | 11.78219 | 1478 ft | 2 kts | 174° |
| 2026-05-06 20:02 | 48.35033 | 11.78221 | 1481 ft | 2 kts | 174° |
| 2026-05-06 20:02 | 48.35019 | 11.78223 | 1480 ft | 2 kts | 175° |
| 2026-05-06 20:02 | 48.35003 | 11.78226 | 1473 ft | 3 kts | 164° |
| 2026-05-06 20:02 | 48.34992 | 11.78250 | 1476 ft | 3 kts | 109° |
| 2026-05-06 20:03 | 48.34990 | 11.78279 | 1474 ft | 3 kts | 88° |
| 2026-05-06 20:03 | 48.34993 | 11.78315 | 1481 ft | 4 kts | 83° |
| 2026-05-06 20:03 | 48.34996 | 11.78355 | 1484 ft | 2 kts | 83° |
| 2026-05-06 20:03 | 48.34996 | 11.78361 | 1484 ft | 0 kts | 83° |